createdAt,value
2022-12-14T00:01:49.725Z,-2.40
2022-12-14T00:04:17.396Z,-2.40
2022-12-14T00:06:44.753Z,-2.40
2022-12-14T00:09:11.928Z,-2.50
2022-12-14T00:11:38.976Z,-2.50
2022-12-14T00:14:06.399Z,-2.50
2022-12-14T00:16:35.359Z,-2.50
2022-12-14T00:19:03.203Z,-2.40
2022-12-14T00:21:30.317Z,-2.40
2022-12-14T00:23:59.572Z,-2.40
2022-12-14T00:26:32.551Z,-2.40
2022-12-14T00:29:02.054Z,-2.40
2022-12-14T00:31:30.157Z,-2.40
2022-12-14T00:33:57.298Z,-2.40
2022-12-14T00:36:24.468Z,-2.40
2022-12-14T00:38:51.634Z,-2.40
2022-12-14T00:41:19.749Z,-2.40
2022-12-14T00:43:49.450Z,-2.40
2022-12-14T00:46:18.009Z,-2.40
2022-12-14T00:48:45.735Z,-2.40
2022-12-14T00:51:14.950Z,-2.30
2022-12-14T00:53:44.751Z,-2.30
2022-12-14T00:56:12.140Z,-2.40
2022-12-14T00:58:39.212Z,-2.30
2022-12-14T01:01:14.582Z,-2.30
2022-12-14T01:03:41.999Z,-2.30
2022-12-14T01:06:22.477Z,-2.30
2022-12-14T01:08:50.093Z,-2.20
2022-12-14T01:11:17.636Z,-2.30
2022-12-14T01:13:44.792Z,-2.30
2022-12-14T01:16:16.828Z,-2.30
2022-12-14T01:18:44.320Z,-2.20
2022-12-14T01:21:14.074Z,-2.20
2022-12-14T01:23:42.245Z,-2.20
2022-12-14T01:26:09.349Z,-2.20
2022-12-14T01:28:36.942Z,-2.30
2022-12-14T01:31:16.156Z,-2.20
2022-12-14T01:33:44.918Z,-2.20
2022-12-14T01:36:24.822Z,-2.20
2022-12-14T01:38:57.550Z,-2.20
2022-12-14T01:41:53.676Z,-2.20
2022-12-14T01:44:20.633Z,-2.20
2022-12-14T01:47:01.450Z,-2.20
2022-12-14T01:49:34.243Z,-2.20
2022-12-14T01:52:25.385Z,-2.20
2022-12-14T01:55:19.412Z,-2.20
2022-12-14T01:58:04.989Z,-2.20
2022-12-14T02:00:32.371Z,-2.20
2022-12-14T02:03:18.313Z,-2.30
2022-12-14T02:06:03.271Z,-2.30
2022-12-14T02:08:31.155Z,-2.30
2022-12-14T02:10:59.137Z,-2.30
2022-12-14T02:13:40.982Z,-2.40
2022-12-14T02:16:08.772Z,-2.40
2022-12-14T02:18:36.419Z,-2.40
2022-12-14T02:21:28.271Z,-2.40
2022-12-14T02:24:19.850Z,-2.50
2022-12-14T02:27:17.275Z,-2.50
2022-12-14T02:30:08.210Z,-2.50
2022-12-14T02:32:59.925Z,-2.50
2022-12-14T02:35:54.024Z,-2.40
2022-12-14T02:38:42.346Z,-2.40
2022-12-14T02:41:38.506Z,-2.50
2022-12-14T02:44:17.666Z,-2.50
2022-12-14T02:46:58.198Z,-2.60
2022-12-14T02:50:09.391Z,-2.60
2022-12-14T02:53:10.149Z,-2.50
2022-12-14T02:55:52.758Z,-2.50
2022-12-14T02:58:46.610Z,-2.50
2022-12-14T03:01:17.672Z,-2.50
2022-12-14T03:03:44.930Z,-2.50
2022-12-14T03:06:26.100Z,-2.50
2022-12-14T03:09:15.028Z,-2.40
2022-12-14T03:12:10.902Z,-2.40
2022-12-14T03:14:51.009Z,-2.30
2022-12-14T03:17:23.929Z,-2.30
2022-12-14T03:20:02.432Z,-2.30
2022-12-14T03:22:42.335Z,-2.30
2022-12-14T03:25:18.746Z,-2.30
2022-12-14T03:27:59.800Z,-2.30
2022-12-14T03:30:58.070Z,-2.30
2022-12-14T03:33:21.562Z,-2.30
2022-12-14T03:36:26.200Z,-2.30
2022-12-14T03:38:58.022Z,-2.30
2022-12-14T03:41:37.611Z,-2.30
2022-12-14T03:44:23.949Z,-2.30
2022-12-14T03:47:05.620Z,-2.20
2022-12-14T03:49:53.031Z,-2.30
2022-12-14T03:52:38.032Z,-2.20
2022-12-14T03:55:25.182Z,-2.20
2022-12-14T03:58:16.915Z,-2.20
2022-12-14T04:01:15.099Z,-2.10
2022-12-14T04:04:07.790Z,-2.20
2022-12-14T04:06:43.664Z,-2.20
2022-12-14T04:09:19.265Z,-2.20
2022-12-14T04:12:13.341Z,-2.20
2022-12-14T04:15:10.266Z,-2.10
2022-12-14T04:17:58.189Z,-2.20
2022-12-14T04:20:51.763Z,-2.10
2022-12-14T04:23:53.397Z,-2.10
2022-12-14T04:26:26.582Z,-2.10
2022-12-14T04:29:22.434Z,-2.10
2022-12-14T04:31:58.049Z,-2.10
2022-12-14T04:34:28.696Z,-2.10
2022-12-14T04:36:59.775Z,-2.10
2022-12-14T04:39:51.080Z,-2.10
2022-12-14T04:42:23.201Z,-2.10
2022-12-14T04:44:56.734Z,-2.10
2022-12-14T04:47:30.399Z,-2.10
2022-12-14T04:50:12.585Z,-2.10
2022-12-14T04:52:51.780Z,-2.10
2022-12-14T04:56:21.165Z,-2.00
2022-12-14T04:58:48.806Z,-2.00
2022-12-14T05:01:43.587Z,-1.90
2022-12-14T05:04:43.173Z,-1.90
2022-12-14T05:07:20.274Z,-1.90
2022-12-14T05:10:10.608Z,-1.90
2022-12-14T05:13:13.606Z,-1.90
2022-12-14T05:15:49.246Z,-2.00
2022-12-14T05:18:17.931Z,-2.00
2022-12-14T05:20:47.182Z,-2.00
2022-12-14T05:23:15.501Z,-2.00
2022-12-14T05:25:43.285Z,-2.00
2022-12-14T05:28:11.719Z,-2.00
2022-12-14T05:30:39.257Z,-2.00
2022-12-14T05:33:06.626Z,-2.00
2022-12-14T05:35:33.682Z,-2.10
2022-12-14T05:38:00.698Z,-2.10
2022-12-14T05:40:27.746Z,-2.10
2022-12-14T05:43:06.038Z,-2.10
2022-12-14T05:45:33.199Z,-2.10
2022-12-14T05:48:00.263Z,-2.20
2022-12-14T05:50:27.344Z,-2.20
2022-12-14T05:52:55.884Z,-2.20
2022-12-14T05:55:23.320Z,-2.20
2022-12-14T05:57:50.508Z,-2.20
2022-12-14T06:00:17.981Z,-2.20
2022-12-14T06:02:45.157Z,-2.10
2022-12-14T06:05:12.223Z,-2.10
2022-12-14T06:07:39.821Z,-2.20
2022-12-14T06:10:07.438Z,-2.10
2022-12-14T06:12:34.712Z,-2.10
2022-12-14T06:15:01.747Z,-2.10
2022-12-14T06:17:28.759Z,-2.10
2022-12-14T06:19:55.757Z,-2.20
2022-12-14T06:22:25.522Z,-2.20
2022-12-14T06:24:52.818Z,-2.20
2022-12-14T06:27:19.898Z,-2.20
2022-12-14T06:29:47.014Z,-2.30
2022-12-14T06:32:14.030Z,-2.30
2022-12-14T06:34:42.536Z,-2.30
2022-12-14T06:37:09.711Z,-2.40
2022-12-14T06:39:37.197Z,-2.40
2022-12-14T06:42:04.685Z,-2.50
2022-12-14T06:44:31.789Z,-2.50
2022-12-14T06:47:00.166Z,-2.60
2022-12-14T06:49:27.650Z,-2.60
2022-12-14T06:51:54.798Z,-2.60
2022-12-14T06:54:21.934Z,-2.70
2022-12-14T06:56:49.050Z,-2.60
2022-12-14T06:59:17.322Z,-2.70
2022-12-14T07:01:49.589Z,-2.70
2022-12-14T07:04:18.861Z,-2.80
2022-12-14T07:06:45.868Z,-2.80
2022-12-14T07:09:14.874Z,-2.80
2022-12-14T07:11:42.031Z,-2.80
2022-12-14T07:14:18.416Z,-3.00
2022-12-14T07:16:48.515Z,-3.00
2022-12-14T07:19:16.856Z,-3.00
2022-12-14T07:21:43.853Z,-2.90
2022-12-14T07:24:10.999Z,-3.00
2022-12-14T07:26:39.399Z,-3.10
2022-12-14T07:29:06.776Z,-3.20
2022-12-14T07:31:33.906Z,-3.20
2022-12-14T07:34:01.021Z,-3.30
2022-12-14T07:36:30.323Z,-3.30
2022-12-14T07:38:57.949Z,-3.30
2022-12-14T07:41:31.204Z,-3.20
2022-12-14T07:44:00.989Z,-3.10
2022-12-14T07:46:30.688Z,-3.00
2022-12-14T07:48:58.857Z,-2.90
2022-12-14T07:51:29.514Z,-2.80
2022-12-14T07:53:56.886Z,-2.80
2022-12-14T07:56:30.583Z,-2.80
2022-12-14T07:58:59.589Z,-2.80
2022-12-14T08:01:34.105Z,-2.90
2022-12-14T08:04:16.828Z,-2.90
2022-12-14T08:06:44.201Z,-3.00
2022-12-14T08:09:12.154Z,-3.00
2022-12-14T08:11:40.361Z,-3.00
2022-12-14T08:14:13.709Z,-3.00
2022-12-14T08:16:40.833Z,-3.10
2022-12-14T08:19:10.542Z,-3.10
2022-12-14T08:21:38.229Z,-3.10
2022-12-14T08:24:05.449Z,-3.10
2022-12-14T08:26:35.704Z,-3.10
2022-12-14T08:29:04.782Z,-3.10
2022-12-14T08:31:33.349Z,-3.10
2022-12-14T08:34:01.633Z,-3.00
2022-12-14T08:36:32.946Z,-3.00
2022-12-14T08:39:07.242Z,-3.00
2022-12-14T08:41:34.925Z,-2.90
2022-12-14T08:44:03.557Z,-2.80
2022-12-14T08:46:33.341Z,-2.70
2022-12-14T08:49:01.154Z,-2.60
2022-12-14T08:51:29.725Z,-2.50
2022-12-14T08:53:57.412Z,-2.40
2022-12-14T08:56:28.050Z,-2.40
2022-12-14T08:58:56.177Z,-2.40
2022-12-14T09:01:32.871Z,-2.50
2022-12-14T09:04:08.789Z,-2.50
2022-12-14T09:06:39.469Z,-2.60
2022-12-14T09:09:13.702Z,-2.50
2022-12-14T09:11:42.671Z,-2.50
2022-12-14T09:14:10.012Z,-2.40
2022-12-14T09:16:37.663Z,-2.40
2022-12-14T09:19:04.815Z,-2.30
2022-12-14T09:21:31.890Z,-2.30
2022-12-14T09:23:59.930Z,-2.40
2022-12-14T09:26:30.458Z,-2.30
2022-12-14T09:29:00.626Z,-2.30
2022-12-14T09:31:29.660Z,-2.50
2022-12-14T09:33:57.217Z,-2.60
2022-12-14T09:36:30.666Z,-2.50
2022-12-14T09:38:58.410Z,-2.50
2022-12-14T09:41:41.263Z,-2.60
2022-12-14T09:44:25.094Z,-2.50
2022-12-14T09:47:12.278Z,-2.30
2022-12-14T09:49:59.053Z,-2.20
2022-12-14T09:52:45.075Z,-2.10
2022-12-14T09:55:29.246Z,-2.00
2022-12-14T09:58:13.474Z,-2.00
2022-12-14T10:00:53.843Z,-1.90
2022-12-14T10:03:42.667Z,-1.80
2022-12-14T10:06:50.027Z,-1.70
2022-12-14T10:09:42.276Z,-1.70
2022-12-14T10:12:34.670Z,-1.60
2022-12-14T10:15:33.942Z,-1.60
2022-12-14T10:18:00.916Z,-1.70
2022-12-14T10:21:08.083Z,-1.70
2022-12-14T10:23:35.907Z,-1.80
2022-12-14T10:26:09.023Z,-1.70
2022-12-14T10:29:12.464Z,-1.70
2022-12-14T10:31:56.395Z,-1.60
2022-12-14T10:34:29.798Z,-1.70
2022-12-14T10:37:02.833Z,-1.50
2022-12-14T10:39:49.354Z,-1.50
2022-12-14T10:42:30.660Z,-1.50
2022-12-14T10:45:39.191Z,-1.40
2022-12-14T10:48:34.444Z,-1.40
2022-12-14T10:51:21.738Z,-1.50
2022-12-14T10:54:38.655Z,-1.60
2022-12-14T10:57:06.359Z,-1.60
2022-12-14T10:59:42.356Z,-1.60
2022-12-14T11:02:23.587Z,-1.50
2022-12-14T11:05:00.229Z,-1.30
2022-12-14T11:07:40.190Z,-1.50
2022-12-14T11:10:23.158Z,-1.40
2022-12-14T11:13:14.151Z,-1.30
2022-12-14T11:15:47.265Z,-1.30
2022-12-14T11:18:28.287Z,-1.30
2022-12-14T11:21:05.267Z,-1.50
2022-12-14T11:23:46.139Z,-1.50
2022-12-14T11:26:25.768Z,-1.60
2022-12-14T11:28:58.297Z,-1.80
2022-12-14T11:31:35.834Z,-1.80
2022-12-14T11:34:06.505Z,-1.80
2022-12-14T11:36:40.573Z,-1.90
2022-12-14T11:39:13.444Z,-1.90
2022-12-14T11:41:48.449Z,-1.90
2022-12-14T11:44:18.100Z,-1.80
2022-12-14T11:46:51.577Z,-1.80
2022-12-14T11:49:39.330Z,-1.70
2022-12-14T11:52:06.318Z,-1.70
2022-12-14T11:54:36.113Z,-1.70
2022-12-14T11:57:08.796Z,-1.80
2022-12-14T12:00:04.503Z,-1.80
2022-12-14T12:02:37.389Z,-1.80
2022-12-14T12:05:19.046Z,-1.80
2022-12-14T12:07:55.429Z,-1.80
2022-12-14T12:11:03.861Z,-1.80
2022-12-14T12:13:41.428Z,-1.60
2022-12-14T12:16:11.781Z,-1.70
2022-12-14T12:18:56.689Z,-1.60
2022-12-14T12:21:33.778Z,-1.50
2022-12-14T12:24:22.945Z,-1.50
2022-12-14T12:27:14.283Z,-1.50
2022-12-14T12:29:53.290Z,-1.40
2022-12-14T12:32:50.144Z,-1.40
2022-12-14T12:35:30.030Z,-1.30
2022-12-14T12:38:04.333Z,-1.30
2022-12-14T12:40:38.760Z,-1.20
2022-12-14T12:43:19.182Z,-1.20
2022-12-14T12:45:58.797Z,-1.20
2022-12-14T12:48:47.351Z,-1.30
2022-12-14T12:51:59.054Z,-1.30
2022-12-14T12:54:37.761Z,-1.40
2022-12-14T12:57:07.382Z,-1.50
2022-12-14T12:59:49.511Z,-1.40
2022-12-14T13:02:29.720Z,-1.30
2022-12-14T13:05:10.827Z,-1.20
2022-12-14T13:07:50.606Z,-1.30
2022-12-14T13:10:32.144Z,-1.20
2022-12-14T13:13:19.022Z,-1.30
2022-12-14T13:16:03.445Z,-1.30
2022-12-14T13:19:08.664Z,-1.30
2022-12-14T13:21:38.462Z,-1.60
2022-12-14T13:24:07.324Z,-1.60
2022-12-14T13:26:59.529Z,-1.50
2022-12-14T13:29:40.522Z,-1.40
2022-12-14T13:32:37.700Z,-1.70
2022-12-14T13:35:43.356Z,-1.70
2022-12-14T13:38:23.525Z,-1.70
2022-12-14T13:41:15.867Z,-1.60
2022-12-14T13:44:14.438Z,-1.60
2022-12-14T13:46:41.976Z,-1.60
2022-12-14T13:49:22.089Z,-1.60
2022-12-14T13:51:51.212Z,-1.60
2022-12-14T13:54:40.199Z,-1.60
2022-12-14T13:57:13.672Z,-1.60
2022-12-14T13:59:50.173Z,-1.60
2022-12-14T14:02:32.698Z,-1.60
2022-12-14T14:05:15.173Z,-1.60
2022-12-14T14:07:57.582Z,-1.60
2022-12-14T14:10:32.235Z,-1.60
2022-12-14T14:13:02.383Z,-1.80
2022-12-14T14:16:26.219Z,-1.90
2022-12-14T14:19:08.946Z,-1.80
2022-12-14T14:25:02.228Z,-1.80
2022-12-14T14:27:39.026Z,-1.70
2022-12-14T14:30:30.094Z,-1.70
2022-12-14T14:33:19.834Z,-1.70
2022-12-14T14:35:45.262Z,-1.60
2022-12-14T14:38:32.590Z,-1.70
2022-12-14T14:41:19.253Z,-1.70
2022-12-14T14:44:03.715Z,-1.70
2022-12-14T14:46:41.646Z,-1.80
2022-12-14T14:49:26.057Z,-1.80
2022-12-14T14:51:53.182Z,-1.90
2022-12-14T14:54:53.989Z,-2.00
2022-12-14T14:57:36.221Z,-2.00
2022-12-14T15:00:12.572Z,-2.00
2022-12-14T15:02:41.975Z,-2.00
2022-12-14T15:08:32.515Z,-2.00
2022-12-14T15:11:05.785Z,-2.10
2022-12-14T15:14:02.094Z,-2.10
2022-12-14T15:16:49.398Z,-2.20
2022-12-14T15:19:26.454Z,-2.10
2022-12-14T15:22:19.580Z,-2.20
2022-12-14T15:24:51.709Z,-2.20
2022-12-14T15:27:35.573Z,-2.10
2022-12-14T15:30:11.931Z,-2.10
2022-12-14T15:32:47.722Z,-2.20
2022-12-14T15:35:23.719Z,-2.20
2022-12-14T15:37:59.954Z,-2.20
2022-12-14T15:40:32.805Z,-2.20
2022-12-14T15:43:13.434Z,-2.30
2022-12-14T15:45:48.127Z,-2.40
2022-12-14T15:48:34.452Z,-2.40
2022-12-14T15:51:09.414Z,-2.50
2022-12-14T15:53:54.862Z,-2.50
2022-12-14T15:56:40.141Z,-2.30
2022-12-14T15:59:31.322Z,-2.40
2022-12-14T16:02:31.165Z,-2.40
2022-12-14T16:05:03.569Z,-2.40
2022-12-14T16:07:39.334Z,-2.30
2022-12-14T16:10:29.065Z,-2.40
2022-12-14T16:13:03.848Z,-2.20
2022-12-14T16:15:31.334Z,-2.30
2022-12-14T16:18:02.551Z,-2.30
2022-12-14T16:20:37.922Z,-2.30
2022-12-14T16:23:15.743Z,-2.30
2022-12-14T16:26:14.528Z,-2.30
2022-12-14T16:28:42.194Z,-2.30
2022-12-14T16:31:11.929Z,-2.30
2022-12-14T16:33:43.749Z,-2.40
2022-12-14T16:36:20.604Z,-2.40
2022-12-14T16:39:02.410Z,-2.40
2022-12-14T16:41:51.646Z,-2.40
2022-12-14T16:44:33.785Z,-2.40
2022-12-14T16:47:03.969Z,-2.40
2022-12-14T16:49:42.645Z,-2.40
2022-12-14T16:52:34.537Z,-2.40
2022-12-14T16:55:15.589Z,-2.40
2022-12-14T16:57:58.783Z,-2.40
2022-12-14T17:00:32.370Z,-2.40
2022-12-14T17:03:04.128Z,-2.40
2022-12-14T17:05:37.339Z,-2.40
2022-12-14T17:08:06.629Z,-2.40
2022-12-14T17:10:34.403Z,-2.50
2022-12-14T17:13:03.842Z,-2.50
2022-12-14T17:15:34.486Z,-2.50
2022-12-14T17:18:05.173Z,-2.40
2022-12-14T17:20:39.476Z,-2.40
2022-12-14T17:23:10.473Z,-2.50
2022-12-14T17:25:41.966Z,-2.50
2022-12-14T17:28:28.146Z,-2.50
2022-12-14T17:30:59.149Z,-2.50
2022-12-14T17:33:28.381Z,-2.50
2022-12-14T17:35:56.228Z,-2.50
2022-12-14T17:38:24.122Z,-2.50
2022-12-14T17:40:52.030Z,-2.50
2022-12-14T17:43:22.933Z,-2.50
2022-12-14T17:45:50.162Z,-2.50
2022-12-14T17:48:19.614Z,-2.50
2022-12-14T17:50:50.109Z,-2.50
2022-12-14T17:53:26.110Z,-2.60
2022-12-14T17:55:53.237Z,-2.60
2022-12-14T17:58:20.268Z,-2.70
2022-12-14T18:01:03.455Z,-2.70
2022-12-14T18:03:36.222Z,-2.80
2022-12-14T18:06:04.755Z,-2.90
2022-12-14T18:08:31.845Z,-3.10
2022-12-14T18:11:04.114Z,-3.20
2022-12-14T18:13:35.047Z,-3.40
2022-12-14T18:16:02.242Z,-3.50
2022-12-14T18:18:29.708Z,-3.60
2022-12-14T18:21:03.390Z,-3.80
2022-12-14T18:23:32.081Z,-3.90
2022-12-14T18:26:02.690Z,-4.00
2022-12-14T18:28:29.932Z,-4.10
2022-12-14T18:31:09.031Z,-4.10
2022-12-14T18:33:36.365Z,-4.20
2022-12-14T18:36:03.748Z,-4.30
2022-12-14T18:38:30.961Z,-4.20
2022-12-14T18:41:01.864Z,-4.20
2022-12-14T18:43:29.918Z,-4.10
2022-12-14T18:45:57.898Z,-4.10
2022-12-14T18:48:26.130Z,-4.10
2022-12-14T18:50:55.395Z,-4.10
2022-12-14T18:53:24.465Z,-4.10
2022-12-14T18:55:51.994Z,-4.20
2022-12-14T18:58:26.574Z,-4.20
2022-12-14T19:00:59.513Z,-4.40
2022-12-14T19:03:31.322Z,-4.40
2022-12-14T19:08:59.519Z,-4.70
2022-12-14T19:11:39.091Z,-4.80
2022-12-14T19:14:06.973Z,-4.90
2022-12-14T19:16:34.368Z,-5.00
2022-12-14T19:19:01.525Z,-5.00
2022-12-14T19:21:29.811Z,-5.00
2022-12-14T19:23:59.472Z,-5.10
2022-12-14T19:26:28.685Z,-5.20
2022-12-14T19:28:55.985Z,-5.30
2022-12-14T19:31:23.429Z,-5.30
2022-12-14T19:33:50.636Z,-5.30
2022-12-14T19:36:17.900Z,-5.40
2022-12-14T19:38:49.134Z,-5.40
2022-12-14T19:41:20.510Z,-5.50
2022-12-14T19:43:48.655Z,-5.50
2022-12-14T19:46:17.637Z,-5.50
2022-12-14T19:48:45.608Z,-5.60
2022-12-14T19:51:14.752Z,-5.60
2022-12-14T19:53:43.721Z,-5.60
2022-12-14T19:56:14.031Z,-5.60
2022-12-14T19:58:41.163Z,-5.50
2022-12-14T20:01:10.102Z,-5.50
2022-12-14T20:03:39.227Z,-5.50
2022-12-14T20:06:07.260Z,-5.50
2022-12-14T20:08:39.558Z,-5.40
2022-12-14T20:11:13.831Z,-5.40
2022-12-14T20:13:42.301Z,-5.40
2022-12-14T20:16:16.670Z,-5.40
2022-12-14T20:18:44.359Z,-5.40
2022-12-14T20:21:20.149Z,-5.40
2022-12-14T20:23:50.774Z,-5.40
2022-12-14T20:26:22.016Z,-5.50
2022-12-14T20:28:52.789Z,-5.50
2022-12-14T20:31:23.321Z,-5.60
2022-12-14T20:33:50.986Z,-5.70
2022-12-14T20:36:19.771Z,-5.60
2022-12-14T20:38:49.291Z,-5.60
2022-12-14T20:41:17.251Z,-5.70
2022-12-14T20:43:45.435Z,-5.80
2022-12-14T20:46:42.271Z,-5.80
2022-12-14T20:49:18.550Z,-5.80
2022-12-14T20:51:49.544Z,-5.70
2022-12-14T20:54:19.341Z,-5.70
2022-12-14T20:56:49.282Z,-5.60
2022-12-14T20:59:16.904Z,-5.60
2022-12-14T21:01:44.302Z,-5.60
2022-12-14T21:04:14.109Z,-5.60
2022-12-14T21:06:42.985Z,-5.50
2022-12-14T21:09:12.478Z,-5.50
2022-12-14T21:12:05.502Z,-5.40
2022-12-14T21:14:36.797Z,-5.50
2022-12-14T21:17:05.147Z,-5.50
2022-12-14T21:19:33.726Z,-5.50
2022-12-14T21:22:00.976Z,-5.60
2022-12-14T21:25:01.047Z,-5.50
2022-12-14T21:27:23.786Z,-5.50
2022-12-14T21:29:52.244Z,-5.50
2022-12-14T21:32:21.131Z,-5.60
2022-12-14T21:34:49.229Z,-5.50
2022-12-14T21:37:16.833Z,-5.50
2022-12-14T21:39:51.909Z,-5.50
2022-12-14T21:42:22.105Z,-5.40
2022-12-14T21:44:51.308Z,-5.40
2022-12-14T21:47:29.428Z,-5.40
2022-12-14T21:49:57.143Z,-5.40
2022-12-14T21:52:27.242Z,-5.40
2022-12-14T21:54:54.711Z,-5.40
2022-12-14T21:57:47.718Z,-5.30
2022-12-14T22:00:18.487Z,-5.30
2022-12-14T22:02:45.721Z,-5.30
2022-12-14T22:05:14.264Z,-5.20
2022-12-14T22:07:42.021Z,-5.20
2022-12-14T22:10:09.174Z,-5.20
2022-12-14T22:12:36.242Z,-5.20
2022-12-14T22:15:04.098Z,-5.20
2022-12-14T22:17:31.102Z,-5.10
2022-12-14T22:19:59.488Z,-5.10
2022-12-14T22:22:26.718Z,-5.10
2022-12-14T22:24:53.737Z,-5.20
2022-12-14T22:27:22.291Z,-5.10
2022-12-14T22:29:49.335Z,-5.10
2022-12-14T22:32:16.569Z,-5.10
2022-12-14T22:34:43.673Z,-5.10
2022-12-14T22:37:14.099Z,-5.10
2022-12-14T22:39:41.242Z,-5.20
2022-12-14T22:42:08.441Z,-5.10
2022-12-14T22:44:35.901Z,-5.10
2022-12-14T22:47:02.914Z,-5.00
2022-12-14T22:49:29.895Z,-5.00
2022-12-14T22:51:57.093Z,-5.00
2022-12-14T22:54:30.122Z,-4.90
2022-12-14T22:57:13.325Z,-4.90
2022-12-14T23:00:05.718Z,-4.90
2022-12-14T23:02:33.111Z,-4.90
2022-12-14T23:05:00.288Z,-4.90
2022-12-14T23:07:27.351Z,-4.90
2022-12-14T23:10:12.845Z,-5.00
2022-12-14T23:12:58.437Z,-5.10
2022-12-14T23:15:43.991Z,-5.20
2022-12-14T23:18:29.601Z,-5.20
2022-12-14T23:21:15.082Z,-5.20
2022-12-14T23:24:03.585Z,-5.20
2022-12-14T23:26:49.553Z,-5.20
2022-12-14T23:29:34.879Z,-5.10
2022-12-14T23:32:20.618Z,-5.00
2022-12-14T23:35:06.114Z,-5.00
2022-12-14T23:37:52.144Z,-5.00
2022-12-14T23:40:37.900Z,-5.00
2022-12-14T23:43:35.955Z,-5.00
2022-12-14T23:46:23.826Z,-5.00
2022-12-14T23:49:15.350Z,-5.10
2022-12-14T23:52:01.587Z,-5.20
2022-12-14T23:54:47.155Z,-5.20
2022-12-14T23:57:32.764Z,-5.20
